메인 페이지
METAR-TAF:

METAR-TAF

공항 :

Clarion Municipal Airport

클라리온, 아이오와, 미국

위도: 42-45N, 경도: 093-46W, 고도: 354m

현재 날씨관측

예보는 21분 전, 21:55시(UTC)에 발표되었습니다.
북북동14kt
온도 -1°C
습도 100%
기압 1025 hPa
시정: 2.4km
고도 900ft 상공 구름 조금
고도 1800ft 상공 구름 보통
박무

METAR: KCAV 252155Z AUTO 02014KT 1 1/2SM BR FEW009 SCT018 M01/M01 A3028 RMK A01

시각: 17:16 (22:16 UTC)


TAF: 누락

4,000개 이상의 공항 관측 자료 및 예보 (METAR 및 TAF 보고).

지도상에서 검색 가능한 기상관측소가 노란 점과 빨간 점으로 표시되어 있습니다.

기상관측소 명을 보려면 표시 위로 마우스를 이동하세요.

날씨 관측과 예보를 보려면 클릭하세요.

지도 변경 : 확대하려면 엑스 표시가 있는 녹색 버튼, 축소하려면 빼기 표시가 있는 녹색 버튼, 다음 페이지의 지도를 보려면 녹색 화살표를 클릭하세요.


METAR-TAF: